createdAt,value
2022-09-28T00:00:36.933Z,90850.34
2022-09-28T00:03:24.469Z,90832.28
2022-09-28T00:06:12.009Z,90836.00
2022-09-28T00:08:59.550Z,90826.72
2022-09-28T00:11:47.099Z,90833.50
2022-09-28T00:14:34.635Z,90806.44
2022-09-28T00:17:22.192Z,90804.56
2022-09-28T00:20:09.730Z,90790.00
2022-09-28T00:22:57.369Z,90781.41
2022-09-28T00:25:44.917Z,90776.47
2022-09-28T00:28:32.473Z,90765.63
2022-09-28T00:31:20.080Z,90766.34
2022-09-28T00:34:07.710Z,90781.06
2022-09-28T00:36:55.238Z,90768.59
2022-09-28T00:39:42.813Z,90764.94
2022-09-28T00:42:30.341Z,90774.28
2022-09-28T00:45:17.899Z,90768.69
2022-09-28T00:48:05.438Z,90763.06
2022-09-28T00:50:53.071Z,90756.31
2022-09-28T00:53:40.597Z,90753.31
2022-09-28T00:56:28.162Z,90754.44
2022-09-28T00:59:15.714Z,90743.22
2022-09-28T01:02:03.382Z,90741.72
2022-09-28T01:04:51.006Z,90747.72
2022-09-28T01:07:38.663Z,90738.72
2022-09-28T01:10:26.207Z,90743.94
2022-09-28T01:13:13.842Z,90732.66
2022-09-28T01:16:01.448Z,90735.34
2022-09-28T01:18:49.071Z,90731.63
2022-09-28T01:21:36.601Z,90731.66
2022-09-28T01:24:26.149Z,90723.38
2022-09-28T01:27:13.688Z,90711.78
2022-09-28T01:30:03.215Z,90702.81
2022-09-28T01:32:50.764Z,90701.31
2022-09-28T01:35:38.293Z,90692.38
2022-09-28T01:38:25.837Z,90668.81
2022-09-28T01:41:13.406Z,90684.53
2022-09-28T01:44:00.942Z,90670.69
2022-09-28T01:46:48.507Z,90683.00
2022-09-28T01:49:36.057Z,90672.16
2022-09-28T01:52:23.580Z,90660.59
2022-09-28T01:55:11.140Z,90663.22
2022-09-28T01:57:58.688Z,90655.34
2022-09-28T02:00:46.256Z,90648.22
2022-09-28T02:03:33.847Z,90639.56
2022-09-28T02:06:21.393Z,90646.34
2022-09-28T02:09:09.052Z,90630.31
2022-09-28T02:11:56.868Z,90633.28
2022-09-28T02:14:44.518Z,90623.22
2022-09-28T02:17:32.049Z,90617.97
2022-09-28T02:20:19.612Z,90614.22
2022-09-28T02:23:07.152Z,90614.22
2022-09-28T02:25:54.700Z,90630.66
2022-09-28T02:28:42.345Z,90615.34
2022-09-28T02:31:29.917Z,90601.53
2022-09-28T02:34:17.526Z,90598.50
2022-09-28T02:37:05.059Z,90608.25
2022-09-28T02:39:52.617Z,90592.19
2022-09-28T02:42:40.157Z,90597.75
2022-09-28T02:45:27.745Z,90574.59
2022-09-28T02:48:15.299Z,90580.59
2022-09-28T02:51:04.870Z,90585.44
2022-09-28T02:53:52.414Z,90587.69
2022-09-28T02:56:39.970Z,90575.25
2022-09-28T02:59:27.534Z,90581.63
2022-09-28T03:02:15.109Z,90571.53
2022-09-28T03:05:02.728Z,90578.25
2022-09-28T03:07:50.273Z,90564.78
2022-09-28T03:10:37.823Z,90557.31
2022-09-28T03:13:25.359Z,90554.31
2022-09-28T03:16:12.975Z,90548.03
2022-09-28T03:19:00.534Z,90554.03
2022-09-28T03:21:48.198Z,90559.94
2022-09-28T03:24:37.749Z,90553.97
2022-09-28T03:27:25.317Z,90545.72
2022-09-28T03:30:14.859Z,90540.88
2022-09-28T03:33:02.437Z,90541.63
2022-09-28T03:35:51.986Z,90535.25
2022-09-28T03:38:39.560Z,90533.75
2022-09-28T03:41:27.126Z,90534.16
2022-09-28T03:44:14.701Z,90522.78
2022-09-28T03:47:02.247Z,90538.19
2022-09-28T03:49:49.800Z,90529.53
2022-09-28T03:52:37.362Z,90528.44
2022-09-28T03:55:24.927Z,90507.75
2022-09-28T03:58:14.473Z,90524.59
2022-09-28T04:01:02.071Z,90513.38
2022-09-28T04:03:49.660Z,90492.38
2022-09-28T04:06:37.235Z,90493.19
2022-09-28T04:09:24.779Z,90495.03
2022-09-28T04:12:12.353Z,90497.22
2022-09-28T04:14:59.910Z,90493.50
2022-09-28T04:17:47.473Z,90504.06
2022-09-28T04:20:35.015Z,90489.97
2022-09-28T04:23:22.669Z,90489.25
2022-09-28T04:26:12.198Z,90487.44
2022-09-28T04:29:03.984Z,90490.66
2022-09-28T04:31:53.866Z,90493.00
2022-09-28T04:34:44.091Z,90483.81
2022-09-28T04:37:32.051Z,90492.06
2022-09-28T04:40:19.646Z,90477.38
2022-09-28T04:43:09.215Z,90481.53
2022-09-28T04:45:56.845Z,90475.69
2022-09-28T04:48:44.454Z,90460.84
2022-09-28T04:51:34.104Z,90455.22
2022-09-28T04:54:21.647Z,90474.41
2022-09-28T04:57:09.198Z,90484.22
2022-09-28T04:59:56.782Z,90465.56
2022-09-28T05:02:44.422Z,90466.47
2022-09-28T05:05:31.965Z,90464.97
2022-09-28T05:08:19.534Z,90465.72
2022-09-28T05:11:07.069Z,90466.84
2022-09-28T05:13:54.631Z,90459.13
2022-09-28T05:16:42.246Z,90462.44
2022-09-28T05:19:29.918Z,90456.88
2022-09-28T05:22:19.438Z,90466.47
2022-09-28T05:25:07.017Z,90447.00
2022-09-28T05:27:54.598Z,90430.25
2022-09-28T05:30:42.131Z,90439.69
2022-09-28T05:33:29.673Z,90432.47
2022-09-28T05:36:17.255Z,90438.25
2022-09-28T05:39:04.789Z,90428.88
2022-09-28T05:41:52.364Z,90423.50
2022-09-28T05:44:39.912Z,90432.38
2022-09-28T05:47:27.458Z,90430.38
2022-09-28T05:50:15.010Z,90443.19
2022-09-28T05:53:02.579Z,90439.13
2022-09-28T05:55:50.133Z,90445.84
2022-09-28T05:58:37.777Z,90440.69
2022-09-28T06:01:25.383Z,90436.06
2022-09-28T06:04:12.959Z,90428.81
2022-09-28T06:07:00.530Z,90440.47
2022-09-28T06:09:48.107Z,90432.38
2022-09-28T06:12:35.652Z,90436.06
2022-09-28T06:15:23.209Z,90432.06
2022-09-28T06:18:10.736Z,90447.28
2022-09-28T06:20:58.399Z,90451.88
2022-09-28T06:23:49.408Z,90440.47
2022-09-28T06:26:37.205Z,90443.91
2022-09-28T06:29:24.731Z,90446.44
2022-09-28T06:32:12.282Z,90457.72
2022-09-28T06:34:59.811Z,90448.16
2022-09-28T06:37:47.852Z,90453.63
2022-09-28T06:40:37.475Z,90456.63
2022-09-28T06:43:25.061Z,90447.00
2022-09-28T06:46:12.717Z,90459.44
2022-09-28T06:49:00.331Z,90475.28
2022-09-28T06:51:47.881Z,90473.16
2022-09-28T06:54:35.425Z,90478.50
2022-09-28T06:57:23.086Z,90472.03
2022-09-28T07:00:10.624Z,90468.28
2022-09-28T07:02:58.156Z,90468.25
2022-09-28T07:05:45.686Z,90457.66
2022-09-28T07:08:33.238Z,90454.00
2022-09-28T07:11:20.784Z,90464.19
2022-09-28T07:14:09.375Z,90462.47
2022-09-28T07:17:12.580Z,90479.19
2022-09-28T07:20:11.705Z,90492.09
2022-09-28T07:23:14.516Z,90484.38
2022-09-28T07:26:08.571Z,90492.84
2022-09-28T07:28:56.452Z,90501.31
2022-09-28T07:31:43.995Z,90510.44
2022-09-28T07:34:43.608Z,90484.25
2022-09-28T07:37:31.168Z,90487.06
2022-09-28T07:40:18.794Z,90485.88
2022-09-28T07:43:06.365Z,90473.50
2022-09-28T07:45:54.047Z,90476.19
2022-09-28T07:48:41.700Z,90468.78
2022-09-28T07:51:29.239Z,90489.28
2022-09-28T07:54:16.761Z,90475.63
2022-09-28T07:57:04.307Z,90482.72
2022-09-28T07:59:51.890Z,90479.22
2022-09-28T08:02:39.503Z,90494.34
2022-09-28T08:05:27.094Z,90482.25
2022-09-28T08:08:14.720Z,90494.97
2022-09-28T08:11:02.268Z,90504.38
2022-09-28T08:13:49.832Z,90493.16
2022-09-28T08:19:29.905Z,90500.31
2022-09-28T08:22:19.415Z,90487.34
2022-09-28T08:25:06.988Z,90485.25
2022-09-28T08:27:56.529Z,90496.34
2022-09-28T08:30:44.154Z,90491.13
2022-09-28T08:33:31.741Z,90498.38
2022-09-28T08:36:19.315Z,90503.75
2022-09-28T08:39:06.856Z,90497.97
2022-09-28T08:41:54.415Z,90499.19
2022-09-28T08:44:44.916Z,90505.78
2022-09-28T08:47:32.506Z,90506.81
2022-09-28T08:50:20.056Z,90502.50
2022-09-28T08:53:07.913Z,90508.81
2022-09-28T08:55:55.477Z,90513.75
2022-09-28T08:58:43.075Z,90502.97
2022-09-28T09:01:30.700Z,90520.41
2022-09-28T09:04:18.409Z,90522.81
2022-09-28T09:07:06.102Z,90535.13
2022-09-28T09:09:53.640Z,90516.66
2022-09-28T09:12:41.228Z,90532.72
2022-09-28T09:15:28.817Z,90535.94
2022-09-28T09:18:19.820Z,90535.25
2022-09-28T09:21:07.753Z,90543.03
2022-09-28T09:23:55.326Z,90534.59
2022-09-28T09:26:42.873Z,90540.06
2022-09-28T09:29:30.420Z,90539.94
2022-09-28T09:32:17.959Z,90527.09
2022-09-28T09:35:05.496Z,90536.81
2022-09-28T09:37:58.344Z,90550.78
2022-09-28T09:40:48.239Z,90539.44
2022-09-28T09:43:35.821Z,90540.06
2022-09-28T09:46:23.423Z,90542.78
2022-09-28T09:49:11.028Z,90521.44
2022-09-28T09:51:58.561Z,90530.19
2022-09-28T09:54:46.115Z,90534.84
2022-09-28T09:57:33.652Z,90529.78
2022-09-28T10:00:22.327Z,90527.81
2022-09-28T10:03:09.860Z,90529.59
2022-09-28T10:05:57.410Z,90532.78
2022-09-28T10:08:44.944Z,90532.97
2022-09-28T10:11:32.495Z,90523.91
2022-09-28T10:14:20.033Z,90529.78
2022-09-28T10:17:07.653Z,90524.03
2022-09-28T10:19:55.215Z,90511.19
2022-09-28T10:22:42.769Z,90522.59
2022-09-28T10:25:30.309Z,90518.56
2022-09-28T10:28:17.859Z,90513.97
2022-09-28T10:31:05.587Z,90512.44
2022-09-28T10:33:53.218Z,90520.13
2022-09-28T10:36:40.741Z,90526.63
2022-09-28T10:39:28.309Z,90520.69
2022-09-28T10:42:15.842Z,90516.28
2022-09-28T10:45:03.380Z,90509.81
2022-09-28T10:47:50.920Z,90519.38
2022-09-28T10:50:38.480Z,90508.38
2022-09-28T10:53:26.008Z,90514.44
2022-09-28T10:56:13.572Z,90511.63
2022-09-28T10:59:01.113Z,90496.97
2022-09-28T11:01:48.794Z,90485.94
2022-09-28T11:04:36.363Z,90496.16
2022-09-28T11:07:23.925Z,90493.16
2022-09-28T11:10:11.481Z,90486.72
2022-09-28T11:12:59.089Z,90484.72
2022-09-28T11:15:46.649Z,90488.47
2022-09-28T11:18:34.288Z,90491.13
2022-09-28T11:21:23.809Z,90472.88
2022-09-28T11:24:14.400Z,90479.25
2022-09-28T11:27:04.284Z,90460.22
2022-09-28T11:29:51.813Z,90479.50
2022-09-28T11:32:39.452Z,90475.22
2022-09-28T11:35:26.967Z,90485.19
2022-09-28T11:38:14.515Z,90486.31
2022-09-28T11:41:02.078Z,90473.84
2022-09-28T11:43:49.653Z,90461.66
2022-09-28T11:46:37.190Z,90484.06
2022-09-28T11:49:24.716Z,90476.06
2022-09-28T11:52:12.245Z,90458.06
2022-09-28T11:54:59.821Z,90457.13
2022-09-28T11:57:47.357Z,90461.44
2022-09-28T12:00:34.905Z,90463.69
2022-09-28T12:03:22.586Z,90471.84
2022-09-28T12:06:10.275Z,90471.94
2022-09-28T12:08:57.806Z,90470.31
2022-09-28T12:11:45.363Z,90477.63
2022-09-28T12:14:32.905Z,90466.78
2022-09-28T12:17:20.597Z,90473.34
2022-09-28T12:20:08.205Z,90472.94
2022-09-28T12:22:55.868Z,90465.97
2022-09-28T12:25:43.394Z,90476.59
2022-09-28T12:28:30.961Z,90472.47
2022-09-28T12:31:18.562Z,90466.22
2022-09-28T12:34:06.186Z,90460.06
2022-09-28T12:36:53.738Z,90467.19
2022-09-28T12:39:56.881Z,90462.28
2022-09-28T12:42:44.878Z,90455.41
2022-09-28T12:45:38.712Z,90438.53
2022-09-28T12:48:30.749Z,90436.09
2022-09-28T12:51:18.326Z,90426.28
2022-09-28T12:54:05.872Z,90425.81
2022-09-28T12:56:53.431Z,90421.22
2022-09-28T12:59:40.966Z,90416.38
2022-09-28T13:02:28.592Z,90419.03
2022-09-28T13:05:16.213Z,90414.97
2022-09-28T13:08:03.767Z,90416.97
2022-09-28T13:10:51.572Z,90401.63
2022-09-28T13:13:39.192Z,90407.88
2022-09-28T13:16:26.810Z,90386.78
2022-09-28T13:19:14.460Z,90390.00
2022-09-28T13:22:02.085Z,90407.78
2022-09-28T13:24:49.639Z,90412.06
2022-09-28T13:27:37.249Z,90407.16
2022-09-28T13:30:24.831Z,90414.16
2022-09-28T13:33:12.407Z,90429.47
2022-09-28T13:35:59.949Z,90422.31
2022-09-28T13:38:47.521Z,90400.53
2022-09-28T13:41:35.073Z,90413.38
2022-09-28T13:44:22.642Z,90412.47
2022-09-28T13:47:10.177Z,90430.00
2022-09-28T13:49:57.791Z,90426.66
2022-09-28T13:52:45.418Z,90417.94
2022-09-28T13:55:33.025Z,90433.19
2022-09-28T13:58:20.625Z,90427.47
2022-09-28T14:01:08.280Z,90431.63
2022-09-28T14:03:55.871Z,90426.88
2022-09-28T14:06:47.484Z,90427.13
2022-09-28T14:09:37.067Z,90439.13
2022-09-28T14:12:24.624Z,90431.56
2022-09-28T14:15:12.188Z,90431.16
2022-09-28T14:17:59.761Z,90440.56
2022-09-28T14:20:47.294Z,90435.97
2022-09-28T14:23:34.849Z,90457.19
2022-09-28T14:26:22.393Z,90448.06
2022-09-28T14:29:10.294Z,90456.56
2022-09-28T14:31:57.872Z,90461.25
2022-09-28T14:34:45.429Z,90453.00
2022-09-28T14:37:33.011Z,90455.88
2022-09-28T14:40:20.634Z,90459.97
2022-09-28T14:43:08.211Z,90465.09
2022-09-28T14:45:55.913Z,90465.53
2022-09-28T14:48:43.473Z,90469.22
2022-09-28T14:51:31.056Z,90469.38
2022-09-28T14:54:18.632Z,90462.19
2022-09-28T14:57:06.238Z,90473.97
2022-09-28T14:59:53.781Z,90473.38
2022-09-28T15:02:41.331Z,90474.19
2022-09-28T15:05:28.986Z,90474.88
2022-09-28T15:08:16.636Z,90475.09
2022-09-28T15:11:04.173Z,90479.91
2022-09-28T15:13:51.729Z,90470.50
2022-09-28T15:16:39.270Z,90473.94
2022-09-28T15:19:26.843Z,90479.75
2022-09-28T15:22:14.405Z,90481.50
2022-09-28T15:25:02.893Z,90489.22
2022-09-28T15:27:50.661Z,90487.00
2022-09-28T15:30:38.295Z,90477.47
2022-09-28T15:33:25.880Z,90487.47
2022-09-28T15:36:13.443Z,90485.53
2022-09-28T15:39:00.977Z,90484.78
2022-09-28T15:41:48.545Z,90491.06
2022-09-28T15:44:36.092Z,90501.25
2022-09-28T15:47:23.651Z,90490.09
2022-09-28T15:50:11.198Z,90493.41
2022-09-28T15:52:58.730Z,90509.84
2022-09-28T15:55:46.273Z,90515.06
2022-09-28T15:58:33.866Z,90507.81
2022-09-28T16:01:21.429Z,90507.19
2022-09-28T16:04:09.081Z,90509.50
2022-09-28T16:06:56.636Z,90519.59
2022-09-28T16:09:44.186Z,90510.25
2022-09-28T16:12:31.753Z,90525.88
2022-09-28T16:15:21.304Z,90525.72
2022-09-28T16:18:08.831Z,90530.94
2022-09-28T16:20:56.367Z,90526.47
2022-09-28T16:23:43.916Z,90528.44
2022-09-28T16:26:31.452Z,90524.69
2022-09-28T16:29:19.072Z,90528.00
2022-09-28T16:32:06.681Z,90537.91
2022-09-28T16:34:54.237Z,90547.25
2022-09-28T16:37:41.804Z,90568.22
2022-09-28T16:40:29.372Z,90570.41
2022-09-28T16:43:17.069Z,90564.63
2022-09-28T16:46:04.644Z,90576.69
2022-09-28T16:48:52.240Z,90582.88
2022-09-28T16:51:39.751Z,90580.34
2022-09-28T16:54:27.302Z,90594.78
2022-09-28T16:57:14.843Z,90600.09
2022-09-28T17:00:02.404Z,90604.13
2022-09-28T17:02:50.005Z,90596.28
2022-09-28T17:05:37.563Z,90599.38
2022-09-28T17:08:25.116Z,90598.75
2022-09-28T17:11:17.024Z,90603.88
2022-09-28T17:14:07.885Z,90611.06
2022-09-28T17:17:08.117Z,90615.16
2022-09-28T17:19:58.108Z,90628.38
2022-09-28T17:22:45.646Z,90629.19
2022-09-28T17:25:33.195Z,90633.63
2022-09-28T17:28:20.712Z,90635.63
2022-09-28T17:31:19.785Z,90645.78
2022-09-28T17:34:07.367Z,90642.59
2022-09-28T17:36:54.930Z,90648.72
2022-09-28T17:39:42.462Z,90651.31
2022-09-28T17:42:30.008Z,90651.66
2022-09-28T17:45:17.550Z,90650.69
2022-09-28T17:48:05.099Z,90644.16
2022-09-28T17:50:52.633Z,90647.94
2022-09-28T17:53:40.194Z,90648.22
2022-09-28T17:56:31.925Z,90646.16
2022-09-28T17:59:22.075Z,90648.13
2022-09-28T18:02:09.669Z,90653.84
2022-09-28T18:04:57.656Z,90661.38
2022-09-28T18:07:47.604Z,90660.25
2022-09-28T18:10:35.443Z,90663.59
2022-09-28T18:13:23.119Z,90666.53
2022-09-28T18:16:10.713Z,90666.91
2022-09-28T18:18:58.409Z,90656.50
2022-09-28T18:21:47.916Z,90659.28
2022-09-28T18:24:35.466Z,90656.38
2022-09-28T18:27:22.992Z,90650.81
2022-09-28T18:30:12.556Z,90656.63
2022-09-28T18:33:00.083Z,90658.19
2022-09-28T18:35:47.635Z,90658.28
2022-09-28T18:38:35.176Z,90665.31
2022-09-28T18:41:22.693Z,90658.06
2022-09-28T18:44:10.238Z,90658.28
2022-09-28T18:46:57.785Z,90660.84
2022-09-28T18:49:46.813Z,90654.31
2022-09-28T18:52:34.488Z,90648.53
2022-09-28T18:55:22.034Z,90648.06
2022-09-28T18:58:09.592Z,90651.16
2022-09-28T19:01:13.504Z,90649.56
2022-09-28T19:04:04.625Z,90650.59
2022-09-28T19:06:52.167Z,90650.81
2022-09-28T19:09:39.725Z,90659.44
2022-09-28T19:12:29.251Z,90659.22
2022-09-28T19:15:16.780Z,90652.91
2022-09-28T19:18:04.313Z,90656.03
2022-09-28T19:20:51.949Z,90661.88
2022-09-28T19:23:39.488Z,90665.44
2022-09-28T19:26:27.058Z,90666.53
2022-09-28T19:29:14.674Z,90660.66
2022-09-28T19:32:02.320Z,90656.34
2022-09-28T19:34:49.856Z,90658.31
2022-09-28T19:37:37.409Z,90651.88
2022-09-28T19:40:24.956Z,90649.97
2022-09-28T19:43:12.519Z,90647.47
2022-09-28T19:46:00.237Z,90653.25
2022-09-28T19:48:47.793Z,90654.59
2022-09-28T19:51:35.426Z,90648.31
2022-09-28T19:54:24.932Z,90653.91
2022-09-28T19:57:12.478Z,90654.69
2022-09-28T20:00:02.701Z,90661.28
2022-09-28T20:02:50.995Z,90657.06
2022-09-28T20:05:38.565Z,90653.41
2022-09-28T20:08:26.092Z,90662.13
2022-09-28T20:11:13.674Z,90657.22
2022-09-28T20:14:01.205Z,90648.72
2022-09-28T20:16:48.759Z,90652.22
2022-09-28T20:19:36.283Z,90656.88
2022-09-28T20:22:23.846Z,90651.63
2022-09-28T20:25:11.384Z,90654.13
2022-09-28T20:27:58.929Z,90659.75
2022-09-28T20:30:46.535Z,90658.78
2022-09-28T20:33:34.101Z,90656.78
2022-09-28T20:36:21.623Z,90659.72
2022-09-28T20:39:09.173Z,90665.25
2022-09-28T20:41:56.726Z,90653.59
2022-09-28T20:44:44.268Z,90656.63
2022-09-28T20:47:31.805Z,90655.88
2022-09-28T20:50:22.024Z,90648.81
2022-09-28T20:53:09.642Z,90636.22
2022-09-28T20:55:57.188Z,90635.13
2022-09-28T20:58:44.717Z,90649.16
2022-09-28T21:01:32.392Z,90646.31
2022-09-28T21:04:20.059Z,90643.19
2022-09-28T21:07:07.859Z,90636.63
2022-09-28T21:09:55.402Z,90643.97
2022-09-28T21:12:42.955Z,90645.94
2022-09-28T21:15:30.547Z,90656.94
2022-09-28T21:18:18.130Z,90643.78
2022-09-28T21:21:05.667Z,90639.75
2022-09-28T21:23:53.215Z,90640.69
2022-09-28T21:26:40.754Z,90636.84
2022-09-28T21:29:28.299Z,90633.97
2022-09-28T21:32:15.829Z,90629.19
2022-09-28T21:35:03.461Z,90630.00
2022-09-28T21:37:52.993Z,90631.91
2022-09-28T21:40:40.558Z,90629.34
2022-09-28T21:43:30.093Z,90615.91
2022-09-28T21:46:17.771Z,90620.41
2022-09-28T21:49:05.364Z,90623.41
2022-09-28T21:51:52.901Z,90629.84
2022-09-28T21:54:40.432Z,90632.38
2022-09-28T21:57:27.965Z,90622.66
2022-09-28T22:00:15.551Z,90617.59
2022-09-28T22:03:03.125Z,90617.03
2022-09-28T22:05:50.694Z,90621.19
2022-09-28T22:08:38.253Z,90614.72
2022-09-28T22:11:25.817Z,90610.78
2022-09-28T22:14:13.373Z,90606.75
2022-09-28T22:17:00.921Z,90601.22
2022-09-28T22:19:48.448Z,90604.84
2022-09-28T22:22:36.006Z,90596.41
2022-09-28T22:25:23.554Z,90596.22
2022-09-28T22:28:11.200Z,90587.53
2022-09-28T22:30:58.771Z,90590.78
2022-09-28T22:33:46.360Z,90597.34
2022-09-28T22:36:33.871Z,90595.44
2022-09-28T22:39:21.530Z,90591.66
2022-09-28T22:42:09.068Z,90590.59
2022-09-28T22:44:56.624Z,90588.66
2022-09-28T22:47:44.154Z,90589.09
2022-09-28T22:50:31.695Z,90590.69
2022-09-28T22:53:19.239Z,90589.22
2022-09-28T22:56:06.786Z,90583.31
2022-09-28T22:58:54.328Z,90587.72
2022-09-28T23:01:41.891Z,90590.66
2022-09-28T23:04:29.514Z,90575.81
2022-09-28T23:07:17.086Z,90584.00
2022-09-28T23:10:04.623Z,90578.25
2022-09-28T23:12:52.178Z,90574.84
2022-09-28T23:15:39.729Z,90570.03
2022-09-28T23:18:27.331Z,90563.00
2022-09-28T23:21:14.883Z,90561.53
2022-09-28T23:24:02.420Z,90568.47
2022-09-28T23:26:49.967Z,90571.34
2022-09-28T23:29:37.493Z,90563.44
2022-09-28T23:32:28.559Z,90564.00
2022-09-28T23:35:18.738Z,90561.34
2022-09-28T23:38:06.283Z,90562.22
2022-09-28T23:40:53.855Z,90563.59
2022-09-28T23:43:41.465Z,90561.31
2022-09-28T23:46:29.059Z,90560.00
2022-09-28T23:49:16.719Z,90555.06
2022-09-28T23:52:04.274Z,90558.81
2022-09-28T23:54:53.850Z,90559.88
2022-09-28T23:57:41.400Z,90557.72
